Time,TemperatureF,DewpointF,PressureIn,WindDirection,WindDirectionDegrees,WindSpeedMPH,WindSpeedGustMPH,Humidity,HourlyPrecipIn,Conditions,Clouds,dailyrainin,SoftwareType,DateUTC
2013-06-02 00:01:00,66.4,63.7,30.10,WSW,250,0.0,1.0,91,0.00,,,0.00,meteohub,2013-06-02 04:01:00,
2013-06-02 00:02:00,66.4,63.7,30.10,WSW,252,1.0,1.0,91,0.00,,,0.00,meteohub,2013-06-02 04:02:00,
2013-06-02 00:07:00,66.4,63.7,30.10,WSW,240,0.0,1.0,91,0.00,,,0.00,meteohub,2013-06-02 04:07:00,
2013-06-02 00:12:00,66.2,63.5,30.10,SW,235,0.0,1.0,91,0.00,,,0.00,meteohub,2013-06-02 04:12:00,
2013-06-02 00:17:00,66.2,63.5,30.10,WSW,243,1.0,1.0,91,0.00,,,0.00,meteohub,2013-06-02 04:17:00,
2013-06-02 00:22:00,66.2,63.5,30.10,West,280,0.0,2.0,91,0.00,,,0.00,meteohub,2013-06-02 04:22:00,
2013-06-02 00:27:00,66.0,63.3,30.10,SW,218,0.0,2.0,91,0.00,,,0.00,meteohub,2013-06-02 04:27:00,
2013-06-02 00:32:00,66.0,63.3,30.09,ENE,72,0.0,2.0,91,0.00,,,0.00,meteohub,2013-06-02 04:32:00,
2013-06-02 00:37:00,66.0,63.3,30.09,SW,232,0.0,2.0,91,0.00,,,0.00,meteohub,2013-06-02 04:37:00,
2013-06-02 00:42:00,66.0,63.3,30.09,WSW,246,1.0,2.0,91,0.00,,,0.00,meteohub,2013-06-02 04:42:00,
2013-06-02 00:47:00,65.8,63.1,30.09,NE,44,0.0,2.0,91,0.00,,,0.00,meteohub,2013-06-02 04:47:00,
2013-06-02 00:52:00,65.8,63.1,30.09,West,271,1.0,4.0,91,0.00,,,0.00,meteohub,2013-06-02 04:52:00,
2013-06-02 00:57:00,65.8,63.1,30.09,West,274,0.0,4.0,91,0.00,,,0.00,meteohub,2013-06-02 04:57:00,
2013-06-02 01:02:00,65.7,63.0,30.09,SW,232,0.0,3.0,91,0.00,,,0.00,meteohub,2013-06-02 05:02:00,
2013-06-02 01:07:00,65.7,63.0,30.09,West,259,0.0,3.0,91,0.00,,,0.00,meteohub,2013-06-02 05:07:00,
2013-06-02 01:12:00,65.5,62.8,30.09,West,259,0.0,3.0,91,0.00,,,0.00,meteohub,2013-06-02 05:12:00,
2013-06-02 01:17:00,65.5,62.8,30.08,West,277,0.0,2.0,91,0.00,,,0.00,meteohub,2013-06-02 05:17:00,
2013-06-02 01:22:00,65.5,62.8,30.08,East,90,1.0,2.0,91,0.00,,,0.00,meteohub,2013-06-02 05:22:00,
2013-06-02 01:27:00,65.3,62.6,30.08,WSW,238,0.0,2.0,91,0.00,,,0.00,meteohub,2013-06-02 05:27:00,
2013-06-02 01:32:00,65.1,62.4,30.08,West,273,0.0,1.0,91,0.00,,,0.00,meteohub,2013-06-02 05:32:00,
2013-06-02 01:37:00,65.1,62.4,30.08,WSW,256,0.0,1.0,91,0.00,,,0.00,meteohub,2013-06-02 05:37:00,
2013-06-02 01:43:00,64.9,62.2,30.07,West,264,0.0,2.0,91,0.00,,,0.00,meteohub,2013-06-02 05:43:00,
2013-06-02 01:48:00,64.9,62.2,30.07,SW,232,0.0,2.0,91,0.00,,,0.00,meteohub,2013-06-02 05:48:00,
2013-06-02 01:53:00,64.9,62.2,30.08,WNW,288,0.0,2.0,91,0.00,,,0.00,meteohub,2013-06-02 05:53:00,
2013-06-02 01:58:00,64.9,62.6,30.08,WNW,290,0.0,2.0,92,0.00,,,0.00,meteohub,2013-06-02 05:58:00,
2013-06-02 02:03:00,64.8,62.4,30.08,WNW,291,0.0,2.0,92,0.00,,,0.00,meteohub,2013-06-02 06:03:00,
2013-06-02 02:08:00,64.8,62.4,30.08,WSW,256,0.0,1.0,92,0.00,,,0.00,meteohub,2013-06-02 06:08:00,
2013-06-02 02:13:00,64.6,62.2,30.07,SW,215,1.0,1.0,92,0.00,,,0.00,meteohub,2013-06-02 06:13:00,
2013-06-02 02:18:00,64.6,62.2,30.07,ENE,77,0.0,1.0,92,0.00,,,0.00,meteohub,2013-06-02 06:18:00,
2013-06-02 02:23:00,64.6,62.2,30.06,ESE,105,0.0,1.0,92,0.00,,,0.00,meteohub,2013-06-02 06:23:00,
2013-06-02 02:28:00,64.6,62.2,30.07,SSW,201,0.0,1.0,92,0.00,,,0.00,meteohub,2013-06-02 06:28:00,
2013-06-02 02:33:00,64.6,62.2,30.06,West,274,0.0,2.0,92,0.00,,,0.00,meteohub,2013-06-02 06:33:00,
2013-06-02 02:38:00,64.4,62.1,30.06,West,274,0.0,2.0,92,0.00,,,0.00,meteohub,2013-06-02 06:38:00,
2013-06-02 02:43:00,64.2,61.9,30.06,West,274,0.0,2.0,92,0.00,,,0.00,meteohub,2013-06-02 06:43:00,
2013-06-02 02:48:00,64.2,61.9,30.06,West,271,0.0,1.0,92,0.00,,,0.00,meteohub,2013-06-02 06:48:00,
2013-06-02 02:53:00,64.2,61.9,30.06,SW,228,0.0,1.0,92,0.00,,,0.00,meteohub,2013-06-02 06:53:00,
2013-06-02 02:58:00,64.2,61.9,30.06,WSW,250,0.0,2.0,92,0.00,,,0.00,meteohub,2013-06-02 06:58:00,
2013-06-02 03:03:00,64.2,61.9,30.06,West,259,0.0,2.0,92,0.00,,,0.00,meteohub,2013-06-02 07:03:00,
2013-06-02 03:08:00,64.0,61.7,30.06,WSW,246,1.0,2.0,92,0.00,,,0.00,meteohub,2013-06-02 07:08:00,
2013-06-02 03:13:00,64.0,61.7,30.06,WSW,249,0.0,1.0,92,0.00,,,0.00,meteohub,2013-06-02 07:13:00,
2013-06-02 03:18:00,64.0,61.7,30.06,West,277,0.0,1.0,92,0.00,,,0.00,meteohub,2013-06-02 07:18:00,
2013-06-02 03:24:00,64.0,61.7,30.06,West,271,1.0,1.0,92,0.00,,,0.00,meteohub,2013-06-02 07:24:00,
2013-06-02 03:29:00,63.9,61.5,30.06,SE,133,0.0,1.0,92,0.00,,,0.00,meteohub,2013-06-02 07:29:00,
2013-06-02 03:34:00,63.9,61.5,30.06,WSW,238,0.0,1.0,92,0.00,,,0.00,meteohub,2013-06-02 07:34:00,
2013-06-02 03:39:00,63.9,61.5,30.06,ESE,102,0.0,1.0,92,0.00,,,0.00,meteohub,2013-06-02 07:39:00,
2013-06-02 03:44:00,63.7,61.3,30.06,WNW,300,1.0,1.0,92,0.00,,,0.00,meteohub,2013-06-02 07:44:00,
2013-06-02 03:49:00,63.7,61.7,30.06,West,269,0.0,1.0,93,0.00,,,0.00,meteohub,2013-06-02 07:49:00,
2013-06-02 03:54:00,63.7,61.7,30.06,WSW,257,0.0,2.0,93,0.00,,,0.00,meteohub,2013-06-02 07:54:00,
2013-06-02 03:59:00,63.7,61.7,30.06,WNW,288,0.0,2.0,93,0.00,,,0.00,meteohub,2013-06-02 07:59:00,
2013-06-02 04:04:00,63.5,61.5,30.05,WNW,288,0.0,3.0,93,0.00,,,0.00,meteohub,2013-06-02 08:04:00,
2013-06-02 04:09:00,63.5,61.5,30.06,SW,226,0.0,3.0,93,0.00,,,0.00,meteohub,2013-06-02 08:09:00,
2013-06-02 04:14:00,63.5,61.5,30.06,WNW,291,0.0,3.0,93,0.00,,,0.00,meteohub,2013-06-02 08:14:00,
2013-06-02 04:19:00,63.5,61.5,30.06,SW,235,0.0,2.0,93,0.00,,,0.00,meteohub,2013-06-02 08:19:00,
2013-06-02 04:24:00,63.5,61.5,30.06,ESE,105,0.0,2.0,93,0.00,,,0.00,meteohub,2013-06-02 08:24:00,
2013-06-02 04:29:00,63.3,61.3,30.06,WSW,238,0.0,2.0,93,0.00,,,0.00,meteohub,2013-06-02 08:29:00,
2013-06-02 04:34:00,63.3,61.3,30.06,WSW,238,0.0,2.0,93,0.00,,,0.00,meteohub,2013-06-02 08:34:00,
2013-06-02 04:39:00,63.3,61.3,30.06,West,276,0.0,2.0,93,0.00,,,0.00,meteohub,2013-06-02 08:39:00,
2013-06-02 04:44:00,63.1,61.2,30.06,West,277,0.0,1.0,93,0.00,,,0.00,meteohub,2013-06-02 08:44:00,
2013-06-02 04:49:00,63.1,61.2,30.06,SSW,194,0.0,1.0,93,0.00,,,0.00,meteohub,2013-06-02 08:49:00,
2013-06-02 04:54:00,63.1,61.2,30.06,WNW,296,0.0,1.0,93,0.00,,,0.00,meteohub,2013-06-02 08:54:00,
2013-06-02 04:59:00,63.0,61.0,30.06,SSW,197,0.0,1.0,93,0.00,,,0.00,meteohub,2013-06-02 08:59:00,
2013-06-02 05:04:00,63.0,61.0,30.06,WSW,256,0.0,1.0,93,0.00,,,0.00,meteohub,2013-06-02 09:04:00,
2013-06-02 05:09:00,63.0,61.0,30.06,West,259,0.0,1.0,93,0.00,,,0.00,meteohub,2013-06-02 09:09:00,
2013-06-02 05:14:00,63.0,61.0,30.06,West,259,0.0,1.0,93,0.00,,,0.00,meteohub,2013-06-02 09:14:00,
2013-06-02 05:19:00,62.8,60.8,30.06,ESE,111,0.0,2.0,93,0.00,,,0.00,meteohub,2013-06-02 09:19:00,
2013-06-02 05:24:00,62.8,60.8,30.06,South,184,0.0,2.0,93,0.00,,,0.00,meteohub,2013-06-02 09:24:00,
2013-06-02 05:29:00,62.8,60.8,30.06,West,259,0.0,2.0,93,0.00,,,0.00,meteohub,2013-06-02 09:29:00,
2013-06-02 05:34:00,62.8,60.8,30.06,West,278,0.0,2.0,93,0.00,,,0.00,meteohub,2013-06-02 09:34:00,
2013-06-02 05:39:00,62.8,61.0,30.06,WSW,253,1.0,2.0,94,0.00,,,0.00,meteohub,2013-06-02 09:39:00,
2013-06-02 05:44:00,62.8,61.0,30.06,WSW,248,0.0,2.0,94,0.00,,,0.00,meteohub,2013-06-02 09:44:00,
2013-06-02 05:49:00,62.8,61.0,30.06,WSW,247,0.0,2.0,94,0.00,,,0.00,meteohub,2013-06-02 09:49:00,
2013-06-02 05:54:00,62.8,61.0,30.06,WSW,253,0.0,2.0,94,0.00,,,0.00,meteohub,2013-06-02 09:54:00,
2013-06-02 05:59:00,62.8,61.0,30.06,SW,232,0.0,1.0,94,0.00,,,0.00,meteohub,2013-06-02 09:59:00,
2013-06-02 06:04:00,62.8,61.0,30.06,West,275,0.0,1.0,94,0.00,,,0.00,meteohub,2013-06-02 10:04:00,
2013-06-02 06:09:00,62.8,61.0,30.07,West,259,0.0,2.0,94,0.00,,,0.00,meteohub,2013-06-02 10:09:00,
2013-06-02 06:14:00,62.8,61.0,30.06,ESE,114,0.0,2.0,94,0.00,,,0.00,meteohub,2013-06-02 10:14:00,
2013-06-02 06:19:00,62.8,61.0,30.06,WSW,240,1.0,2.0,94,0.00,,,0.00,meteohub,2013-06-02 10:19:00,
2013-06-02 06:24:00,62.8,61.0,30.06,SSW,201,0.0,2.0,94,0.00,,,0.00,meteohub,2013-06-02 10:24:00,
2013-06-02 06:29:00,63.0,61.2,30.06,SE,143,0.0,2.0,94,0.00,,,0.00,meteohub,2013-06-02 10:29:00,
2013-06-02 06:34:00,63.0,61.2,30.06,SSW,206,0.0,2.0,94,0.00,,,0.00,meteohub,2013-06-02 10:34:00,
2013-06-02 06:40:00,63.1,61.3,30.06,ENE,65,0.0,2.0,94,0.00,,,0.00,meteohub,2013-06-02 10:40:00,
2013-06-02 06:45:00,63.3,61.5,30.06,West,280,0.0,2.0,94,0.00,,,0.00,meteohub,2013-06-02 10:45:00,
2013-06-02 06:50:00,63.5,61.7,30.06,ESE,117,1.0,2.0,94,0.00,,,0.00,meteohub,2013-06-02 10:50:00,
2013-06-02 06:55:00,63.7,61.9,30.06,East,95,0.0,4.0,94,0.00,,,0.00,meteohub,2013-06-02 10:55:00,
2013-06-02 07:00:00,63.9,62.1,30.06,SSW,212,0.0,4.0,94,0.00,,,0.00,meteohub,2013-06-02 11:00:00,
2013-06-02 07:05:00,63.9,62.1,30.06,WSW,238,0.0,4.0,94,0.00,,,0.00,meteohub,2013-06-02 11:05:00,
2013-06-02 07:10:00,64.0,62.2,30.06,West,272,1.0,3.0,94,0.00,,,0.00,meteohub,2013-06-02 11:10:00,
2013-06-02 07:15:00,64.4,62.4,30.06,South,191,0.0,3.0,93,0.00,,,0.00,meteohub,2013-06-02 11:15:00,
2013-06-02 07:20:00,64.6,62.4,30.06,SSW,212,0.0,3.0,93,0.00,,,0.00,meteohub,2013-06-02 11:20:00,
2013-06-02 07:25:00,64.9,62.8,30.06,SE,140,1.0,2.0,93,0.00,,,0.00,meteohub,2013-06-02 11:25:00,
2013-06-02 07:30:00,65.1,63.0,30.06,NW,307,0.0,2.0,93,0.00,,,0.00,meteohub,2013-06-02 11:30:00,
2013-06-02 07:35:00,65.5,63.3,30.06,East,84,1.0,2.0,93,0.00,,,0.00,meteohub,2013-06-02 11:35:00,
2013-06-02 07:40:00,65.8,63.5,30.06,SE,125,1.0,2.0,92,0.00,,,0.00,meteohub,2013-06-02 11:40:00,
2013-06-02 07:45:00,66.0,63.7,30.06,WSW,253,1.0,2.0,92,0.00,,,0.00,meteohub,2013-06-02 11:45:00,
2013-06-02 07:50:00,66.6,64.2,30.06,West,261,0.0,4.0,92,0.00,,,0.00,meteohub,2013-06-02 11:50:00,
2013-06-02 07:55:00,66.7,64.0,30.06,West,281,1.0,4.0,91,0.00,,,0.00,meteohub,2013-06-02 11:55:00,
2013-06-02 08:00:00,67.3,64.6,30.06,ESE,105,1.0,4.0,91,0.00,,,0.00,meteohub,2013-06-02 12:00:00,
2013-06-02 08:05:00,67.5,64.8,30.06,SSE,148,1.0,5.0,91,0.00,,,0.00,meteohub,2013-06-02 12:05:00,
2013-06-02 08:10:00,67.8,64.8,30.06,SE,132,0.0,5.0,90,0.00,,,0.00,meteohub,2013-06-02 12:10:00,
2013-06-02 08:15:00,68.4,65.3,30.06,West,271,0.0,7.0,90,0.00,,,0.00,meteohub,2013-06-02 12:15:00,
2013-06-02 08:20:00,68.5,65.5,30.06,West,263,1.0,7.0,90,0.00,,,0.00,meteohub,2013-06-02 12:20:00,
2013-06-02 08:25:00,68.9,65.5,30.06,West,270,1.0,2.0,89,0.00,,,0.00,meteohub,2013-06-02 12:25:00,
2013-06-02 08:30:00,69.1,65.7,30.06,East,98,1.0,4.0,89,0.00,,,0.00,meteohub,2013-06-02 12:30:00,
2013-06-02 08:35:00,69.4,65.7,30.06,NW,316,0.0,4.0,88,0.00,,,0.00,meteohub,2013-06-02 12:35:00,
2013-06-02 08:40:00,70.0,66.2,30.05,WSW,240,0.0,4.0,88,0.00,,,0.00,meteohub,2013-06-02 12:40:00,
2013-06-02 08:45:00,70.3,66.2,30.05,ESE,122,4.0,4.0,87,0.00,,,0.00,meteohub,2013-06-02 12:45:00,
2013-06-02 08:50:00,70.9,66.6,30.05,WSW,253,2.0,4.0,86,0.00,,,0.00,meteohub,2013-06-02 12:50:00,
2013-06-02 08:55:00,71.2,66.9,30.05,NNW,344,1.0,4.0,86,0.00,,,0.00,meteohub,2013-06-02 12:55:00,
2013-06-02 09:01:00,71.6,66.9,30.05,West,273,0.0,7.0,85,0.00,,,0.00,meteohub,2013-06-02 13:01:00,
2013-06-02 09:06:00,72.0,66.9,30.05,WSW,256,3.0,7.0,84,0.00,,,0.00,meteohub,2013-06-02 13:06:00,
2013-06-02 09:11:00,72.3,67.6,30.05,South,169,1.0,7.0,85,0.00,,,0.00,meteohub,2013-06-02 13:11:00,
2013-06-02 09:16:00,72.7,67.3,30.04,WSW,240,2.0,4.0,83,0.00,,,0.00,meteohub,2013-06-02 13:16:00,
2013-06-02 09:21:00,72.9,67.5,30.05,WSW,257,1.0,5.0,83,0.00,,,0.00,meteohub,2013-06-02 13:21:00,
2013-06-02 09:26:00,73.0,67.6,30.05,ESE,117,1.0,6.0,83,0.00,,,0.00,meteohub,2013-06-02 13:26:00,
2013-06-02 09:31:00,73.4,67.6,30.04,WNW,291,1.0,6.0,82,0.00,,,0.00,meteohub,2013-06-02 13:31:00,
2013-06-02 09:36:00,73.8,68.0,30.04,SW,228,2.0,6.0,82,0.00,,,0.00,meteohub,2013-06-02 13:36:00,
2013-06-02 09:41:00,74.1,68.0,30.04,SSW,203,1.0,6.0,81,0.00,,,0.00,meteohub,2013-06-02 13:41:00,
2013-06-02 09:46:00,74.7,68.0,30.04,West,278,2.0,6.0,80,0.00,,,0.00,meteohub,2013-06-02 13:46:00,
2013-06-02 09:51:00,74.7,68.0,30.04,SSW,210,0.0,5.0,80,0.00,,,0.00,meteohub,2013-06-02 13:51:00,
2013-06-02 09:56:00,75.0,68.0,30.04,West,275,2.0,5.0,79,0.00,,,0.00,meteohub,2013-06-02 13:56:00,
2013-06-02 10:01:00,75.2,67.8,30.04,ESE,114,3.0,5.0,78,0.00,,,0.00,meteohub,2013-06-02 14:01:00,
2013-06-02 10:06:00,74.8,67.8,30.04,SSE,161,2.0,5.0,79,0.00,,,0.00,meteohub,2013-06-02 14:06:00,
2013-06-02 10:11:00,74.8,67.8,30.04,West,259,1.0,6.0,79,0.00,,,0.00,meteohub,2013-06-02 14:11:00,
2013-06-02 10:16:00,75.6,68.9,30.04,SW,228,1.0,6.0,80,0.00,,,0.00,meteohub,2013-06-02 14:16:00,
2013-06-02 10:21:00,76.1,68.7,30.04,West,264,1.0,6.0,78,0.00,,,0.00,meteohub,2013-06-02 14:21:00,
2013-06-02 10:26:00,76.8,69.4,30.04,West,275,1.0,4.0,78,0.00,,,0.00,meteohub,2013-06-02 14:26:00,
2013-06-02 10:31:00,77.4,69.3,30.04,WSW,253,0.0,4.0,76,0.00,,,0.00,meteohub,2013-06-02 14:31:00,
2013-06-02 10:36:00,77.2,68.7,30.04,North,8,2.0,5.0,75,0.00,,,0.00,meteohub,2013-06-02 14:36:00,
2013-06-02 10:41:00,77.0,68.9,30.04,NNW,328,1.0,6.0,76,0.00,,,0.00,meteohub,2013-06-02 14:41:00,
2013-06-02 10:46:00,77.4,69.3,30.04,West,270,2.0,6.0,76,0.00,,,0.00,meteohub,2013-06-02 14:46:00,
2013-06-02 10:51:00,77.7,69.6,30.04,WSW,253,2.0,6.0,76,0.00,,,0.00,meteohub,2013-06-02 14:51:00,
2013-06-02 10:56:00,78.3,69.3,30.04,North,6,3.0,5.0,74,0.00,,,0.00,meteohub,2013-06-02 14:56:00,
2013-06-02 11:01:00,78.3,68.9,30.04,WSW,249,3.0,5.0,73,0.00,,,0.00,meteohub,2013-06-02 15:01:00,
2013-06-02 11:06:00,78.1,68.7,30.04,WSW,241,1.0,5.0,73,0.00,,,0.00,meteohub,2013-06-02 15:06:00,
2013-06-02 11:11:00,78.3,69.6,30.04,West,271,1.0,8.0,75,0.00,,,0.00,meteohub,2013-06-02 15:11:00,
2013-06-02 11:17:00,78.3,68.9,30.04,SSW,207,2.0,8.0,73,0.00,,,0.00,meteohub,2013-06-02 15:17:00,
2013-06-02 11:22:00,78.3,68.9,30.03,ESE,108,3.0,8.0,73,0.00,,,0.00,meteohub,2013-06-02 15:22:00,
2013-06-02 11:27:00,78.1,68.7,30.03,NW,308,2.0,5.0,73,0.00,,,0.00,meteohub,2013-06-02 15:27:00,
2013-06-02 11:32:00,78.4,69.4,30.03,West,259,1.0,6.0,74,0.00,,,0.00,meteohub,2013-06-02 15:32:00,
2013-06-02 11:37:00,78.8,69.1,30.03,SW,220,1.0,6.0,72,0.00,,,0.00,meteohub,2013-06-02 15:37:00,
2013-06-02 11:42:00,78.4,68.2,30.03,West,278,1.0,8.0,71,0.00,,,0.00,meteohub,2013-06-02 15:42:00,
2013-06-02 11:47:00,78.4,69.1,30.03,West,259,3.0,8.0,73,0.00,,,0.00,meteohub,2013-06-02 15:47:00,
2013-06-02 11:52:00,79.3,70.0,30.03,SW,229,1.0,8.0,73,0.00,,,0.00,meteohub,2013-06-02 15:52:00,
2013-06-02 11:57:00,80.1,69.8,30.03,WNW,291,1.0,4.0,71,0.00,,,0.00,meteohub,2013-06-02 15:57:00,
2013-06-02 12:02:00,80.2,69.1,30.03,SSW,210,4.0,6.0,69,0.00,,,0.00,meteohub,2013-06-02 16:02:00,
2013-06-02 12:07:00,79.7,69.4,30.03,NW,311,2.0,9.0,71,0.00,,,0.00,meteohub,2013-06-02 16:07:00,
2013-06-02 12:12:00,79.2,68.5,30.03,SSW,194,3.0,9.0,70,0.00,,,0.00,meteohub,2013-06-02 16:12:00,
2013-06-02 12:17:00,79.0,68.7,30.03,WSW,250,4.0,9.0,71,0.00,,,0.00,meteohub,2013-06-02 16:17:00,
2013-06-02 12:22:00,79.2,69.3,30.02,NNE,33,5.0,9.0,72,0.00,,,0.00,meteohub,2013-06-02 16:22:00,
2013-06-02 12:27:00,79.7,69.4,30.03,SW,232,4.0,9.0,71,0.00,,,0.00,meteohub,2013-06-02 16:27:00,
2013-06-02 12:32:00,79.7,69.4,30.02,WSW,249,2.0,9.0,71,0.00,,,0.00,meteohub,2013-06-02 16:32:00,
2013-06-02 12:37:00,80.2,70.0,30.02,West,280,4.0,7.0,71,0.00,,,0.00,meteohub,2013-06-02 16:37:00,
2013-06-02 12:42:00,80.1,69.4,30.02,West,273,2.0,6.0,70,0.00,,,0.00,meteohub,2013-06-02 16:42:00,
2013-06-02 12:47:00,80.1,69.4,30.02,West,278,1.0,7.0,70,0.00,,,0.00,meteohub,2013-06-02 16:47:00,
2013-06-02 12:52:00,80.2,69.1,30.02,NNW,336,2.0,7.0,69,0.00,,,0.00,meteohub,2013-06-02 16:52:00,
2013-06-02 12:57:00,80.2,69.1,30.02,WNW,284,2.0,7.0,69,0.00,,,0.00,meteohub,2013-06-02 16:57:00,
2013-06-02 13:02:00,80.1,68.5,30.02,East,98,5.0,7.0,68,0.00,,,0.00,meteohub,2013-06-02 17:02:00,
2013-06-02 13:07:00,79.9,69.3,30.02,SW,219,2.0,9.0,70,0.00,,,0.00,meteohub,2013-06-02 17:07:00,
2013-06-02 13:12:00,80.8,69.6,30.02,NW,322,2.0,9.0,69,0.00,,,0.00,meteohub,2013-06-02 17:12:00,
2013-06-02 13:17:00,80.6,69.4,30.01,West,277,3.0,9.0,69,0.00,,,0.00,meteohub,2013-06-02 17:17:00,
2013-06-02 13:22:00,80.2,69.6,30.01,West,261,1.0,7.0,70,0.00,,,0.00,meteohub,2013-06-02 17:22:00,
2013-06-02 13:27:00,80.6,69.4,30.01,West,270,1.0,7.0,69,0.00,,,0.00,meteohub,2013-06-02 17:27:00,
2013-06-02 13:32:00,81.0,69.4,30.01,NE,55,2.0,7.0,68,0.00,,,0.00,meteohub,2013-06-02 17:32:00,
2013-06-02 13:37:00,81.0,69.4,30.01,SE,133,1.0,5.0,68,0.00,,,0.00,meteohub,2013-06-02 17:37:00,
2013-06-02 13:42:00,80.8,69.6,30.01,ENE,77,1.0,5.0,69,0.00,,,0.00,meteohub,2013-06-02 17:42:00,
2013-06-02 13:47:00,81.0,69.4,30.01,NW,308,2.0,6.0,68,0.00,,,0.00,meteohub,2013-06-02 17:47:00,
2013-06-02 13:52:00,80.2,68.7,30.00,ESE,105,3.0,8.0,68,0.00,,,0.00,meteohub,2013-06-02 17:52:00,
2013-06-02 13:57:00,80.1,68.9,30.00,NNW,343,3.0,8.0,69,0.00,,,0.00,meteohub,2013-06-02 17:57:00,
2013-06-02 14:02:00,80.4,68.9,30.00,WNW,288,2.0,7.0,68,0.00,,,0.00,meteohub,2013-06-02 18:02:00,
2013-06-02 14:07:00,80.4,68.9,30.00,NE,46,3.0,7.0,68,0.00,,,0.00,meteohub,2013-06-02 18:07:00,
2013-06-02 14:12:00,80.2,70.0,29.99,ESE,123,1.0,9.0,71,0.00,,,0.00,meteohub,2013-06-02 18:12:00,
2013-06-02 14:17:00,81.0,69.8,29.99,ESE,109,2.0,9.0,69,0.00,,,0.00,meteohub,2013-06-02 18:17:00,
2013-06-02 14:22:00,81.0,69.4,29.99,SE,131,4.0,6.0,68,0.00,,,0.00,meteohub,2013-06-02 18:22:00,
2013-06-02 14:27:00,81.1,68.7,30.00,NW,305,7.0,8.0,66,0.00,,,0.00,meteohub,2013-06-02 18:27:00,
2013-06-02 14:32:00,80.8,69.6,29.99,ESE,112,1.0,8.0,69,0.00,,,0.00,meteohub,2013-06-02 18:32:00,
2013-06-02 14:37:00,80.1,68.9,29.99,North,9,3.0,9.0,69,0.00,,,0.00,meteohub,2013-06-02 18:37:00,
2013-06-02 14:42:00,80.6,69.1,29.99,SW,222,2.0,9.0,68,0.00,,,0.00,meteohub,2013-06-02 18:42:00,
2013-06-02 14:47:00,80.4,69.8,29.99,ESE,105,2.0,9.0,70,0.00,,,0.00,meteohub,2013-06-02 18:47:00,
2013-06-02 14:52:00,80.4,69.8,29.99,SW,225,1.0,10.0,70,0.00,,,0.00,meteohub,2013-06-02 18:52:00,
2013-06-02 14:57:00,80.8,68.7,29.99,SSW,204,2.0,10.0,67,0.00,,,0.00,meteohub,2013-06-02 18:57:00,
2013-06-02 15:02:00,79.7,68.5,29.99,West,259,1.0,10.0,69,0.00,,,0.00,meteohub,2013-06-02 19:02:00,
2013-06-02 15:07:00,79.9,68.4,29.99,SE,135,3.0,9.0,68,0.00,,,0.00,meteohub,2013-06-02 19:07:00,
2013-06-02 15:12:00,79.3,68.4,29.99,WNW,297,4.0,9.0,69,0.00,,,0.00,meteohub,2013-06-02 19:12:00,
2013-06-02 15:17:00,78.8,68.5,29.99,South,176,3.0,10.0,71,0.00,,,0.00,meteohub,2013-06-02 19:17:00,
2013-06-02 15:22:00,78.6,68.0,29.99,WSW,246,1.0,10.0,70,0.00,,,0.00,meteohub,2013-06-02 19:22:00,
2013-06-02 15:27:00,79.0,69.3,29.99,SSW,210,1.0,10.0,72,0.00,,,0.00,meteohub,2013-06-02 19:27:00,
2013-06-02 15:32:00,79.5,69.3,29.99,WSW,240,2.0,7.0,71,0.00,,,0.00,meteohub,2013-06-02 19:32:00,
2013-06-02 15:37:00,79.3,68.4,29.99,WSW,257,1.0,7.0,69,0.00,,,0.00,meteohub,2013-06-02 19:37:00,
2013-06-02 15:42:00,79.3,68.4,29.99,SSE,165,5.0,6.0,69,0.00,,,0.00,meteohub,2013-06-02 19:42:00,
2013-06-02 15:47:00,78.6,68.0,29.99,NW,321,5.0,7.0,70,0.00,,,0.00,meteohub,2013-06-02 19:47:00,
2013-06-02 15:52:00,77.9,67.8,29.99,WSW,253,3.0,7.0,71,0.00,,,0.00,meteohub,2013-06-02 19:52:00,
2013-06-02 15:57:00,77.5,67.5,29.99,ENE,78,3.0,8.0,71,0.00,,,0.00,meteohub,2013-06-02 19:57:00,
2013-06-02 16:02:00,77.0,67.3,29.99,WSW,240,3.0,8.0,72,0.00,,,0.00,meteohub,2013-06-02 20:02:00,
2013-06-02 16:07:00,76.5,67.1,29.99,SE,126,3.0,8.0,73,0.00,,,0.00,meteohub,2013-06-02 20:07:00,
2013-06-02 16:12:00,76.3,67.5,29.98,WNW,288,1.0,9.0,74,0.00,,,0.00,meteohub,2013-06-02 20:12:00,
2013-06-02 16:17:00,76.1,67.6,29.99,North,8,1.0,9.0,75,0.00,,,0.00,meteohub,2013-06-02 20:17:00,
2013-06-02 16:22:00,76.5,67.1,29.99,East,97,4.0,5.0,73,0.00,,,0.00,meteohub,2013-06-02 20:22:00,
2013-06-02 16:27:00,75.7,66.9,29.99,WSW,248,3.0,5.0,74,0.00,,,0.00,meteohub,2013-06-02 20:27:00,
2013-06-02 16:32:00,75.7,66.9,29.98,ESE,103,2.0,8.0,74,0.00,,,0.00,meteohub,2013-06-02 20:32:00,
2013-06-02 16:37:00,75.6,66.7,29.98,SSW,207,3.0,8.0,74,0.00,,,0.00,meteohub,2013-06-02 20:37:00,
2013-06-02 16:42:00,75.6,67.1,29.98,ESE,117,1.0,8.0,75,0.00,,,0.00,meteohub,2013-06-02 20:42:00,
2013-06-02 16:47:00,75.2,66.7,29.98,East,88,4.0,8.0,75,0.00,,,0.00,meteohub,2013-06-02 20:47:00,
2013-06-02 16:52:00,75.0,66.9,29.98,WSW,257,2.0,8.0,76,0.00,,,0.00,meteohub,2013-06-02 20:52:00,
2013-06-02 16:57:00,74.8,66.7,29.98,WSW,243,1.0,8.0,76,0.00,,,0.00,meteohub,2013-06-02 20:57:00,
2013-06-02 17:02:00,74.7,66.2,29.98,West,262,2.0,8.0,75,0.00,,,0.00,meteohub,2013-06-02 21:02:00,
2013-06-02 17:07:00,73.9,66.2,29.98,West,278,0.0,7.0,77,0.00,,,0.00,meteohub,2013-06-02 21:07:00,
2013-06-02 17:13:00,73.6,65.8,29.98,WSW,250,1.0,7.0,77,0.00,,,0.00,meteohub,2013-06-02 21:13:00,
2013-06-02 17:18:00,73.0,65.5,29.98,WSW,240,5.0,7.0,77,0.00,,,0.00,meteohub,2013-06-02 21:18:00,
2013-06-02 17:23:00,72.5,65.7,29.98,SW,218,2.0,8.0,79,0.00,,,0.00,meteohub,2013-06-02 21:23:00,
2013-06-02 17:28:00,72.3,65.1,29.97,WNW,288,1.0,8.0,78,0.00,,,0.00,meteohub,2013-06-02 21:28:00,
2013-06-02 17:33:00,72.1,65.3,29.97,SW,235,1.0,8.0,79,0.00,,,0.00,meteohub,2013-06-02 21:33:00,
2013-06-02 17:38:00,71.6,64.4,29.97,WSW,248,5.0,6.0,78,0.00,,,0.00,meteohub,2013-06-02 21:38:00,
2013-06-02 17:43:00,71.1,64.2,29.97,SE,145,1.0,10.0,79,0.00,,,0.00,meteohub,2013-06-02 21:43:00,
2013-06-02 17:48:00,70.9,64.4,29.97,West,269,0.0,10.0,80,0.00,,,0.00,meteohub,2013-06-02 21:48:00,
2013-06-02 17:53:00,70.3,64.2,29.97,SSE,152,2.0,10.0,81,0.00,,,0.00,meteohub,2013-06-02 21:53:00,
2013-06-02 17:58:00,70.0,63.9,29.97,NE,38,0.0,5.0,81,0.00,,,0.00,meteohub,2013-06-02 21:58:00,
2013-06-02 18:03:00,70.0,63.9,29.97,SSE,158,1.0,5.0,81,0.00,,,0.00,meteohub,2013-06-02 22:03:00,
2013-06-02 18:08:00,70.0,64.2,29.97,SSE,153,0.0,6.0,82,0.00,,,0.00,meteohub,2013-06-02 22:08:00,
2013-06-02 18:13:00,69.6,63.9,29.97,NW,322,1.0,6.0,82,0.00,,,0.00,meteohub,2013-06-02 22:13:00,
2013-06-02 18:18:00,69.6,63.9,29.97,SW,235,3.0,6.0,82,0.00,,,0.00,meteohub,2013-06-02 22:18:00,
2013-06-02 18:23:00,69.6,63.9,29.98,West,266,4.0,4.0,82,0.00,,,0.00,meteohub,2013-06-02 22:23:00,
2013-06-02 18:28:00,70.0,64.6,29.98,NW,315,1.0,3.0,83,0.00,,,0.00,meteohub,2013-06-02 22:28:00,
2013-06-02 18:33:00,70.2,64.0,29.98,NNW,342,1.0,4.0,81,0.00,,,0.00,meteohub,2013-06-02 22:33:00,
2013-06-02 18:38:00,70.0,63.9,29.98,SE,137,2.0,9.0,81,0.00,,,0.00,meteohub,2013-06-02 22:38:00,
2013-06-02 18:43:00,70.0,64.2,29.98,WNW,282,5.0,9.0,82,0.00,,,0.00,meteohub,2013-06-02 22:43:00,
2013-06-02 18:48:00,70.0,64.2,29.97,WNW,302,3.0,8.0,82,0.00,,,0.00,meteohub,2013-06-02 22:48:00,
2013-06-02 18:53:00,69.6,63.9,29.98,WSW,245,3.0,8.0,82,0.00,,,0.00,meteohub,2013-06-02 22:53:00,
2013-06-02 18:58:00,69.4,63.7,29.99,NNW,346,1.0,6.0,82,0.00,,,0.00,meteohub,2013-06-02 22:58:00,
2013-06-02 19:03:00,69.3,63.9,29.99,West,281,1.0,6.0,83,0.00,,,0.00,meteohub,2013-06-02 23:03:00,
2013-06-02 19:08:00,69.1,63.7,29.99,WSW,238,0.0,6.0,83,0.00,,,0.00,meteohub,2013-06-02 23:08:00,
2013-06-02 19:13:00,69.1,63.7,29.99,West,268,3.0,4.0,83,0.00,,,0.00,meteohub,2013-06-02 23:13:00,
2013-06-02 19:18:00,68.7,63.7,29.99,NE,45,1.0,5.0,84,0.00,,,0.00,meteohub,2013-06-02 23:18:00,
2013-06-02 19:23:00,68.5,63.5,29.99,WSW,249,2.0,5.0,84,0.00,,,0.00,meteohub,2013-06-02 23:23:00,
2013-06-02 19:28:00,68.4,63.3,29.99,West,277,0.0,5.0,84,0.00,,,0.00,meteohub,2013-06-02 23:28:00,
2013-06-02 19:34:00,68.2,63.5,29.99,SSE,153,4.0,4.0,85,0.00,,,0.00,meteohub,2013-06-02 23:34:00,
2013-06-02 19:39:00,68.0,63.3,29.98,WSW,250,0.0,4.0,85,0.00,,,0.00,meteohub,2013-06-02 23:39:00,
2013-06-02 19:44:00,67.8,63.1,29.99,East,101,3.0,6.0,85,0.00,,,0.00,meteohub,2013-06-02 23:44:00,
2013-06-02 19:49:00,67.8,63.5,29.99,West,271,3.0,6.0,86,0.00,,,0.00,meteohub,2013-06-02 23:49:00,
2013-06-02 19:54:00,67.6,63.3,29.99,ESE,107,2.0,6.0,86,0.00,,,0.00,meteohub,2013-06-02 23:54:00,
2013-06-02 19:59:00,67.5,63.1,29.99,SSE,161,1.0,4.0,86,0.00,,,0.00,meteohub,2013-06-02 23:59:00,
2013-06-02 20:04:00,67.3,63.0,29.99,ESE,104,0.0,3.0,86,0.00,,,0.00,meteohub,2013-06-03 00:04:00,
2013-06-02 20:09:00,67.3,63.0,29.99,WSW,246,0.0,4.0,86,0.00,,,0.00,meteohub,2013-06-03 00:09:00,
2013-06-02 20:14:00,66.9,63.0,29.99,West,264,2.0,4.0,87,0.00,,,0.00,meteohub,2013-06-03 00:14:00,
2013-06-02 20:19:00,66.7,62.8,29.99,SE,140,0.0,4.0,87,0.00,,,0.00,meteohub,2013-06-03 00:19:00,
2013-06-02 20:24:00,66.7,62.8,30.00,NNE,16,0.0,4.0,87,0.00,,,0.00,meteohub,2013-06-03 00:24:00,
2013-06-02 20:29:00,66.6,62.6,29.99,NE,50,1.0,3.0,87,0.00,,,0.00,meteohub,2013-06-03 00:29:00,
2013-06-02 20:34:00,66.6,63.0,30.00,WSW,256,1.0,3.0,88,0.00,,,0.00,meteohub,2013-06-03 00:34:00,
2013-06-02 20:39:00,66.6,63.0,29.99,West,262,1.0,3.0,88,0.00,,,0.00,meteohub,2013-06-03 00:39:00,
2013-06-02 20:44:00,66.4,62.8,29.99,NW,325,0.0,4.0,88,0.00,,,0.00,meteohub,2013-06-03 00:44:00,
2013-06-02 20:49:00,66.4,62.8,30.00,NW,325,0.0,4.0,88,0.00,,,0.00,meteohub,2013-06-03 00:49:00,
2013-06-02 20:54:00,66.2,62.6,30.00,WSW,240,2.0,4.0,88,0.00,,,0.00,meteohub,2013-06-03 00:54:00,
2013-06-02 20:59:00,66.2,62.8,30.00,WSW,250,1.0,3.0,89,0.00,,,0.00,meteohub,2013-06-03 00:59:00,
2013-06-02 21:04:00,66.2,62.8,30.00,SW,221,0.0,2.0,89,0.00,,,0.00,meteohub,2013-06-03 01:04:00,
2013-06-02 21:09:00,66.2,62.8,30.00,WSW,256,0.0,2.0,89,0.00,,,0.00,meteohub,2013-06-03 01:09:00,
2013-06-02 21:14:00,66.4,63.0,30.00,West,280,0.0,5.0,89,0.00,,,0.00,meteohub,2013-06-03 01:14:00,
2013-06-02 21:19:00,66.2,62.8,30.00,ESE,120,0.0,5.0,89,0.00,,,0.00,meteohub,2013-06-03 01:19:00,
2013-06-02 21:24:00,66.2,62.8,30.01,ESE,120,0.0,5.0,89,0.00,,,0.00,meteohub,2013-06-03 01:24:00,
2013-06-02 21:29:00,66.0,62.6,30.01,WSW,250,2.0,5.0,89,0.00,,,0.00,meteohub,2013-06-03 01:29:00,
2013-06-02 21:34:00,66.0,62.6,30.00,ESE,105,2.0,3.0,89,0.00,,,0.00,meteohub,2013-06-03 01:34:00,
2013-06-02 21:39:00,65.8,62.4,30.01,East,80,0.0,4.0,89,0.00,,,0.00,meteohub,2013-06-03 01:39:00,
2013-06-02 21:44:00,65.8,62.4,30.00,WSW,250,2.0,4.0,89,0.00,,,0.00,meteohub,2013-06-03 01:44:00,
2013-06-02 21:49:00,65.8,62.4,30.01,West,259,0.0,4.0,89,0.00,,,0.00,meteohub,2013-06-03 01:49:00,
2013-06-02 21:54:00,65.7,62.2,30.01,West,278,0.0,5.0,89,0.00,,,0.00,meteohub,2013-06-03 01:54:00,
2013-06-02 21:59:00,65.7,62.2,30.01,WNW,300,0.0,5.0,89,0.00,,,0.00,meteohub,2013-06-03 01:59:00,
2013-06-02 22:04:00,65.7,62.2,30.01,ENE,64,0.0,5.0,89,0.00,,,0.00,meteohub,2013-06-03 02:04:00,
2013-06-02 22:09:00,65.5,62.4,30.01,SSW,195,0.0,3.0,90,0.00,,,0.00,meteohub,2013-06-03 02:09:00,
2013-06-02 22:14:00,65.5,62.4,30.01,South,174,0.0,1.0,90,0.00,,,0.00,meteohub,2013-06-03 02:14:00,
2013-06-02 22:19:00,65.3,62.2,30.01,West,259,1.0,4.0,90,0.00,,,0.00,meteohub,2013-06-03 02:19:00,
2013-06-02 22:24:00,65.3,62.2,30.01,WSW,249,0.0,4.0,90,0.00,,,0.00,meteohub,2013-06-03 02:24:00,
2013-06-02 22:29:00,65.1,62.1,30.01,SSE,154,0.0,4.0,90,0.00,,,0.00,meteohub,2013-06-03 02:29:00,
2013-06-02 22:34:00,65.1,62.1,30.01,WNW,290,0.0,2.0,90,0.00,,,0.00,meteohub,2013-06-03 02:34:00,
2013-06-02 22:39:00,65.1,62.1,30.01,WSW,240,0.0,2.0,90,0.00,,,0.00,meteohub,2013-06-03 02:39:00,
2013-06-02 22:44:00,65.1,62.1,30.01,WSW,249,0.0,2.0,90,0.00,,,0.00,meteohub,2013-06-03 02:44:00,
2013-06-02 22:50:00,65.1,62.1,30.00,NE,41,0.0,2.0,90,0.00,,,0.00,meteohub,2013-06-03 02:50:00,
2013-06-02 22:55:00,65.1,62.1,30.00,ESE,120,0.0,2.0,90,0.00,,,0.00,meteohub,2013-06-03 02:55:00,
2013-06-02 23:00:00,64.9,61.9,30.01,SW,232,1.0,1.0,90,0.00,,,0.00,meteohub,2013-06-03 03:00:00,
2013-06-02 23:05:00,64.9,61.9,30.00,WNW,294,0.0,1.0,90,0.00,,,0.00,meteohub,2013-06-03 03:05:00,
2013-06-02 23:10:00,64.9,61.9,30.01,SE,124,1.0,2.0,90,0.00,,,0.00,meteohub,2013-06-03 03:10:00,
2013-06-02 23:15:00,64.9,61.9,30.00,West,278,0.0,2.0,90,0.00,,,0.00,meteohub,2013-06-03 03:15:00,
2013-06-02 23:20:00,64.9,61.9,30.00,SSE,158,0.0,2.0,90,0.00,,,0.00,meteohub,2013-06-03 03:20:00,
2013-06-02 23:25:00,64.9,61.9,30.00,West,264,0.0,2.0,90,0.00,,,0.00,meteohub,2013-06-03 03:25:00,
2013-06-02 23:30:00,65.1,62.1,30.00,WNW,293,0.0,2.0,90,0.00,,,0.00,meteohub,2013-06-03 03:30:00,
2013-06-02 23:35:00,64.9,61.9,30.00,WSW,238,0.0,4.0,90,0.00,,,0.00,meteohub,2013-06-03 03:35:00,
2013-06-02 23:40:00,65.1,62.1,30.00,WNW,282,1.0,4.0,90,0.00,,,0.00,meteohub,2013-06-03 03:40:00,
2013-06-02 23:45:00,64.9,61.9,30.00,West,279,0.0,4.0,90,0.00,,,0.00,meteohub,2013-06-03 03:45:00,
2013-06-02 23:50:00,64.9,61.9,30.00,SSE,166,0.0,4.0,90,0.00,,,0.00,meteohub,2013-06-03 03:50:00,
2013-06-02 23:55:00,64.9,61.9,30.00,West,265,0.0,3.0,90,0.00,,,0.00,meteohub,2013-06-03 03:55:00,